الصفحة الرئيسية
METAR-TAF:

METAR-TAF

مطار :

ماناغوا, نيكاراغوا

دائرة عرض: 12-09N, خط طول: 086-10W, ارتفاع: 50 متر

مراقبة الطقس الحالي

تاريخ ووقت الإصدار 53 دقيقة قبل الساعة 02:00UTC
ريح 4 عقدة من الشرق/الجنوب الشرقي
درجة الحرارة 27°درجة مئوية
الرطوبة 89%
ضغط 1011 hPa
الرؤية 10 كم أو أكثر
غيوم قليلة على ارتفاع 2000 قدم, مزنة ركامية.
غيوم متفرقة على ارتفاع 30000 قدم

METAR: MNMG 250200Z 12004KT 9999 FEW020CB SCT300 27/25 Q1010 A2984 CB NE/E/S/NW FL NOSIG

زمن: 20:53 (02:53 UTC)

توقعات

تاريخ ووقت الإصدار 5ساعات و 58 دقيقة قبل الساعة 20:55UTC
التوقعات صالحة من25 الساعة 00 UTC إلى 25 الساعة 24 UTC
ريح 6 عقدة من الشرق
الرؤية: 8000 متر
غيوم قليلة على ارتفاع 2000 قدم, مزنة ركامية.
غيوم متفرقة على ارتفاع 7000 قدم
مؤقت
من 25 الساعة 06 UTC إلى 25 الساعة 10 UTC
ريح 4 عقدة من الجنوب الشرقي
الرؤية: 9000 متر
غيوم متفرقة على ارتفاع 2100 قدم
غيوم متفرقة على ارتفاع 6000 قدم

TAF: MNMG 242055Z 2500/2524 10006KT 8000 DZ/-TSRA FEW020CB SCT070 TEMPO 2506/2510 13004KT 9000 DZ/RA SCT021 SCT060

أرصاد الطقس والتوقعات من أكثر من 4000 مطار (تقارير الطقس للمطار METAR والتنبؤ بالطقس بالمطارTAF).

المحطات المتاحة هي النقط الصفراء والحمراء على الخريطة.

حرك المؤشر فوق النقطة لمعرفة اسم المحطة.

ثم انقر لمعرفة أرصاد وتوقعات الطقس.

لتغيير الخارطة: اضغط على الأزرار الخضراء مع رمز الصليب الأسود للتكبير. على الزر الأخضر مع شرطة للتصغير، أو على الأسهم الخضراء للخرائط المجاورة.


METAR-TAF: